Hit Tracker is now ESPN Home Run Tracker! Hit Tracker founder Greg Rybarczyk is now collaborating with the ESPN Stats & Information Group to continue tracking all MLB home runs, and helping baseball fans know "How Far It Really Went!™" Please credit any information on this site to ESPN Stats & Information Group. For more information and analysis on home runs, please contact founder Greg Rybarczyk. E-Mail ESPN Home Run Tracker
Main Page | Ballparks | Park Overlays | Glossary | Highlight Homers | Feedback | Bio | 3 Types of HR's | AAA Home Run Derby Last Updated: July 20, 2017, 6:39 am PST
If you want to know "How Far It Really Went!", then you've come to the right place! Welcome to the ESPN Home Run Tracker, where you can find accurate, transparently verifiable distances for every home run hit in MLB games. Please also check out the ESPN MLB Scoreboard throughout the 2017 season! Contact us at grybar@hittrackeronline.com.
Season:
Ballpark detail for Guaranteed Rate Field
Ballpark # of Home Runs HR per game Avg.
True
Distance
Avg.
Speed
Off
Bat
Avg.
Std.
Dist.
Guaranteed Rate Field 107 2.55 400.7 104.2 398.4

Scatter Plot of Home Runs Guaranteed Rate Field
 Overlay Ballpark:
Without range rings   With range rings

2017 Season Home Runs for Guaranteed Rate Field
Click headers to sort
Date ^ Video Path Hitter Hitter
Team
Pitcher Pitcher
Team
INN Ballpark Type/
Luck
True
Dist.
Speed
Off
Bat
Elev.
Angle
Horiz.
Angle
Apex Impact Due To: Std.
Dist.
#
Parks
Wind Temp. Alt.
07/19/17 Video View Taylor, Chris LAD Rodon, Carlos CHW 1 Guaranteed R... PL 384 98.8 28.6 75.2 85 0 1 1 382 21
07/19/17 Video View Cabrera, Melky CHW Maeda, Kenta LAD 1 Guaranteed R... PL 370 99.8 28.4 62.9 75 0 1 1 368 26
07/19/17 Video View Hernandez, Enrique LAD Rodon, Carlos CHW 2 Guaranteed R... PL 371 102.7 37.8 115.2 138 -2 4 4 365 30
07/19/17 Video View Hernandez, Enrique LAD Rodon, Carlos CHW 4 Guaranteed R... ND 419 110.9 23.6 109.2 70 0 1 1 417 30
07/19/17 Video View Seager, Corey LAD Rodon, Carlos CHW 4 Guaranteed R... JE 391 100.6 26.1 102.3 77 0 1 1 389 16
07/16/17 Video View Garcia, Avisail CHW Moore, Andrew SEA 2 Guaranteed R... PL 429 104.6 26.9 85.8 96 1 0 1 428 29
07/16/17 Video View Narvaez, Omar CHW Moore, Andrew SEA 2 Guaranteed R... PL 381 103.2 25.8 66.0 69 1 0 1 380 27
07/16/17 Video View Garcia, Avisail CHW Moore, Andrew SEA 3 Guaranteed R... ND 409 105.5 35.4 106.6 140 6 1 3 398 30
07/16/17 Video View Seager, Kyle SEA Holland, Derek CHW 4 Guaranteed R... ND 392 102.6 30.9 64.9 97 0 1 2 390 30
07/16/17 Video View Valencia, Danny SEA Holland, Derek CHW 5 Guaranteed R... ND 400 103.0 31.4 111.0 104 2 1 2 396 30
07/16/17 Video View Cruz, Nelson SEA Beck, Chris CHW 10 Guaranteed R... PL 378 109.0 23.2 125.0 56 0 0 1 377 30
07/15/17 Video View Cabrera, Melky CHW Hernandez, Felix SEA 1 Guaranteed R... ND 420 109.6 26.0 66.7 79 1 1 1 417 30
07/15/17 Video View Seager, Kyle SEA Pelfrey, Mike CHW 2 Guaranteed R... ND 408 107.8 33.9 62.4 124 -3 3 3 405 30
07/15/17 Video View Cruz, Nelson SEA Swarzak, Anthony CHW 6 Guaranteed R... PL 426 107.8 21.7 93.5 70 0 0 0 425 25
07/14/17 Video View Cano, Robinson SEA Shields, James CHW 3 Guaranteed R... JE 396 104.1 22.4 81.1 65 0 0 0 396 11
07/02/17 Video View Cabrera, Melky CHW Ross, Tyson TEX 1 Guaranteed R... JE 403 99.6 28.1 95.1 91 0 2 1 399 6
07/02/17 Video View Napoli, Mike TEX Quintana, Jose CHW 4 Guaranteed R... PL 412 103.3 24.3 94.6 81 -1 1 1 411 20
07/02/17 Video View Sanchez, Yolmer CHW Leclerc, Jose TEX 8 Guaranteed R... ND 417 104.2 28.8 71.7 93 9 3 2 406 30
07/01/17 Video View Abreu, Jose CHW Hamels, Cole TEX 1 Guaranteed R... PL 412 102.5 29.1 99.0 104 -4 2 2 412 30
07/01/17 Video View Andrus, Elvis TEX Holland, Derek CHW 5 Guaranteed R... JE/L 366 97.0 38.2 105.7 131 9 4 3 351 2
07/01/17 Video View Napoli, Mike TEX Beck, Chris CHW 6 Guaranteed R... PL 384 104.9 37.5 104.7 156 -9 6 4 383 30
07/01/17 Video View Odor, Rougned TEX Holmberg, David CHW 8 Guaranteed R... PL 365 103.2 39.3 64.0 147 0 6 4 354 28
06/30/17 Video View Abreu, Jose CHW Bibens-Dirkx, Austin TEX 1 Guaranteed R... ND 436 110.7 26.2 108.5 88 0 1 1 434 30
06/30/17 Video View Frazier, Todd CHW Bibens-Dirkx, Austin TEX 1 Guaranteed R... ND 398 106.6 27.8 121.0 80 0 1 1 396 30
06/30/17 Video View Gallo, Joey TEX Pelfrey, Mike CHW 3 Guaranteed R... ND 450 108.6 28.6 98.2 112 2 2 2 446 30
06/30/17 Video View Odor, Rougned TEX Pelfrey, Mike CHW 4 Guaranteed R... PL 394 101.5 31.5 70.3 103 0 1 2 391 30
06/30/17 Video View Frazier, Todd CHW Bibens-Dirkx, Austin TEX 4 Guaranteed R... JE 392 106.3 21.5 102.1 58 0 0 0 391 11
06/28/17 Video View Judge, Aaron NYY Petricka, Jake CHW 6 Guaranteed R... ND 418 118.6 19.5 108.4 53 -1 0 1 417 30
06/28/17 Video View Gregorius, Didi NYY Ynoa, Michael CHW 9 Guaranteed R... JE 362 108.1 21.9 55.2 51 -1 0 0 362 24
06/28/17 Video View Engel, Adam CHW Webb, Tyler NYY 9 Guaranteed R... PL 357 98.1 36.5 114.3 120 -4 1 3 357 23
06/26/17 Video View Frazier, Todd CHW Montgomery, Jordan NYY 2 Guaranteed R... ND 419 106.4 26.5 107.5 81 5 -1 1 413 30
06/26/17 Video View Austin, Tyler NYY Holmberg, David CHW 6 Guaranteed R... PL 378 107.5 23.0 119.3 55 3 -1 1 375 22
06/26/17 Video View Anderson, Tim CHW Shreve, Chasen NYY 9 Guaranteed R... PL 394 101.7 26.7 75.2 80 1 0 1 393 27
06/25/17 Video View Engel, Adam CHW Gray, Sonny OAK 3 Guaranteed R... PL 378 100.4 34.5 118.3 108 4 0 2 372 30
06/25/17 Video View Rosales, Adam OAK Robertson, David CHW 9 Guaranteed R... PL 404 100.4 34.6 101.1 123 12 1 2 388 17
06/25/17 Video View Joyce, Matt OAK Beck, Chris CHW 9 Guaranteed R... ND 412 108.9 27.0 62.8 81 0 1 1 410 30
06/25/17 Video View Cabrera, Melky CHW Casilla, Santiago OAK 9 Guaranteed R... ND 397 104.2 27.3 65.4 76 4 1 1 391 30
06/24/17 Video View Olson, Matt OAK Shields, James CHW 1 Guaranteed R... ND 418 107.7 29.7 65.7 99 0 0 2 415 30
06/24/17 Video View Brugman, Jaycob OAK Shields, James CHW 2 Guaranteed R... PL 366 96.5 32.9 68.6 99 0 1 2 363 21
06/24/17 Video View Barreto, Franklin OAK Shields, James CHW 3 Guaranteed R... PL 405 101.0 31.5 98.7 113 0 1 2 402 25
06/24/17 Video View Olson, Matt OAK Petricka, Jake CHW 7 Guaranteed R... JE 416 103.9 23.9 92.1 77 0 1 1 415 18
06/23/17 Video View Davis, Khris OAK Pelfrey, Mike CHW 1 Guaranteed R... PL 439 108.8 22.4 87.8 77 0 1 1 438 29
06/23/17 Video View Joyce, Matt OAK Pelfrey, Mike CHW 5 Guaranteed R... PL 434 105.7 26.5 83.7 92 2 1 1 430 28
06/15/17 Video View Davidson, Matt CHW Tillman, Chris BAL 4 Guaranteed R... ND 403 105.9 32.7 119.1 110 -2 4 2 399 30
06/15/17 Video View Castillo, Welington BAL Robertson, David CHW 9 Guaranteed R... PL 428 103.2 28.3 92.7 99 2 2 1 422 27
06/14/17 Video View Davidson, Matt CHW Bundy, Dylan BAL 2 Guaranteed R... PL 412 102.6 32.9 83.7 128 0 0 2 409 24
06/14/17 Video View Castillo, Welington BAL Gonzalez, Miguel CHW 5 Guaranteed R... PL 440 107.1 24.7 91.4 89 0 0 1 439 30
06/14/17 Video View Hanson, Alen CHW Givens, Mychal BAL 9 Guaranteed R... JE 408 100.9 27.8 85.3 94 0 0 1 407 15
06/13/17 Video View Davidson, Matt CHW Asher, Alec BAL 6 Guaranteed R... ND 425 110.0 30.8 116.7 109 0 0 2 423 30
06/12/17 Video View Smith, Kevan CHW Miley, Wade BAL 2 Guaranteed R... PL 426 105.1 24.5 84.2 81 3 1 1 421 24
06/12/17 Video View Davidson, Matt CHW Castro, Miguel BAL 7 Guaranteed R... PL 401 100.9 28.5 102.3 91 0 3 1 398 28
06/12/17 Video View Mancini, Trey BAL Infante, Gregory CHW 8 Guaranteed R... JE 351 100.2 25.1 59.5 58 0 1 1 349 8
05/30/17 Video View Marrero, Deven BOS Quintana, Jose CHW 2 Guaranteed R... PL 392 105.9 25.5 115.2 70 0 0 1 390 30
05/30/17 Video View Betts, Mookie BOS Quintana, Jose CHW 2 Guaranteed R... ND 406 107.0 24.9 109.3 73 0 0 1 405 30
05/30/17 Video View Marrero, Deven BOS Quintana, Jose CHW 3 Guaranteed R... PL 381 98.0 30.2 104.9 93 0 0 2 380 20
05/30/17 Video View Frazier, Todd CHW Sale, Chris BOS 4 Guaranteed R... PL 373 97.6 32.7 109.0 103 0 -1 2 371 21
05/30/17 Video View Bradley Jr., Jackie BOS Jennings, Dan CHW 5 Guaranteed R... PL 381 99.3 28.1 73.2 82 0 0 1 380 24
05/30/17 Video View Bogaerts, Xander BOS Jennings, Dan CHW 8 Guaranteed R... JE 413 101.4 29.8 89.7 108 0 0 2 412 23
05/30/17 Video View Anderson, Tim CHW Boyer, Blaine BOS 8 Guaranteed R... PL 412 107.0 23.7 102.9 72 0 0 0 412 30
05/30/17 Video View Moreland, Mitch BOS Minaya, Juan CHW 9 Guaranteed R... ND 421 110.7 26.7 63.1 83 1 -1 1 420 30
05/29/17 Video View Cabrera, Melky CHW Price, David BOS 3 Guaranteed R... PL 404 100.8 29.9 103.0 97 4 1 1 398 28
05/29/17 Video View Betts, Mookie BOS Infante, Gregory CHW 5 Guaranteed R... JE/L 344 104.4 22.2 128.9 46 2 1 1 341 4
05/28/17 Video View Cabrera, Melky CHW Zimmermann, Jordan DET 3 Guaranteed R... PL 386 99.8 32.3 73.8 109 0 -2 2 386 30
05/28/17 Video View Davidson, Matt CHW Zimmermann, Jordan DET 4 Guaranteed R... JE/L 409 100.7 26.8 90.7 87 2 -1 1 407 4
05/28/17 Video View Frazier, Todd CHW Zimmermann, Jordan DET 5 Guaranteed R... ND 401 107.4 28.5 121.3 86 -2 -1 2 402 30
05/27/17 Video View Hicks, John DET Holland, Derek CHW 4 Guaranteed R... PL 392 103.5 28.6 114.5 86 -1 0 1 392 30
05/27/17 Video View Martinez, Victor DET Minaya, Juan CHW 9 Guaranteed R... JE 354 98.8 28.3 57.0 70 0 -1 0 354 27
05/26/17 Video View Avila, Alex DET Pelfrey, Mike CHW 5 Guaranteed R... PL 421 104.3 24.9 87.0 85 0 -1 0 421 24
05/26/17 Video View Davidson, Matt CHW Hardy, Blaine DET 6 Guaranteed R... PL 410 106.7 24.9 106.0 77 0 -1 1 410 30
05/26/17 Video View Cabrera, Melky CHW Bell, Chad DET 8 Guaranteed R... PL 389 107.5 22.2 108.2 59 0 0 1 388 25
05/14/17 Video View Renfroe, Hunter SD Quintana, Jose CHW 7 Guaranteed R... JE/L 375 96.4 29.9 77.6 91 1 -2 1 375 11
05/13/17 Video View Margot, Manuel SD Covey, Dylan CHW 1 Guaranteed R... JE/L 352 93.3 33.3 57.2 80 13 1 1 336 7
05/13/17 Video View Garcia, Avisail CHW Cahill, Trevor SD 2 Guaranteed R... PL 425 103.3 28.1 92.5 101 0 1 2 423 27
05/13/17 Video View Cordoba, Allen SD Covey, Dylan CHW 3 Guaranteed R... PL 405 102.2 26.6 79.4 84 0 1 1 404 28
05/13/17 Video View Myers, Wil SD Kahnle, Tommy CHW 8 Guaranteed R... ND 450 112.9 23.7 101.8 83 1 0 1 449 30
05/12/17 Video View Szczur, Matt SD Gonzalez, Miguel CHW 1 Guaranteed R... ND 412 106.4 30.6 111.6 107 0 -3 2 413 30
05/12/17 Video View Garcia, Leury CHW Chacin, Jhoulys SD 3 Guaranteed R... PL 386 103.9 27.5 62.5 78 0 -2 1 386 30
05/12/17 Video View Garcia, Leury CHW Chacin, Jhoulys SD 7 Guaranteed R... PL 408 102.2 31.0 81.1 114 0 -3 2 409 28
05/12/17 Video View Myers, Wil SD Beck, Chris CHW 9 Guaranteed R... PL 403 101.1 29.5 100.0 102 0 -2 2 403 27
05/11/17 Video View Escobar, Eduardo MIN Holland, Derek CHW 1 Guaranteed R... ND 419 106.9 26.8 105.8 91 -2 -1 1 421 30
05/11/17 Video View Dozier, Brian MIN Holland, Derek CHW 2 Guaranteed R... ND 412 106.8 27.4 109.7 90 -2 -2 1 415 30
05/11/17 Video View Sano, Miguel MIN Holland, Derek CHW 2 Guaranteed R... PL 380 99.5 29.4 73.1 92 -4 -1 1 384 28
05/11/17 Video View Cabrera, Melky CHW Hughes, Phil MIN 5 Guaranteed R... JE 363 102.2 24.3 65.1 60 0 -1 0 363 13
05/11/17 Video View Davidson, Matt CHW Duffey, Tyler MIN 6 Guaranteed R... PL 387 101.3 32.7 109.6 111 0 -3 2 388 30
05/09/17 Video View Vargas, Kennys MIN Pelfrey, Mike CHW 4 Guaranteed R... PL 410 119.5 18.5 73.1 49 0 -1 1 411 29
04/26/17 Video View Garcia, Avisail CHW Karns, Nathan KC 6 Guaranteed R... PL 439 105.1 28.9 93.6 106 5 1 1 432 30
04/26/17 Video View Garcia, Leury CHW Moylan, Peter KC 7 Guaranteed R... JE/L 361 106.8 20.5 68.6 50 -1 0 0 361 3
04/25/17 Video View Moss, Brandon KC Beck, Chris CHW 9 Guaranteed R... JE 399 101.7 25.0 98.3 78 -1 0 1 398 16
04/25/17 Video View Moustakas, Mike KC Beck, Chris CHW 9 Guaranteed R... ND 408 108.7 29.4 60.4 97 -7 0 2 414 30
04/24/17 Video View Davidson, Matt CHW Vargas, Jason KC 2 Guaranteed R... PL 407 104.9 24.4 78.2 76 0 -1 0 407 28
04/23/17 Video View Lindor, Francisco CLE Holland, Derek CHW 4 Guaranteed R... PL 391 100.1 30.1 105.3 97 1 -2 1 390 30
04/22/17 Video View Encarnacion, Edwin CLE Pelfrey, Mike CHW 1 Guaranteed R... PL 438 109.9 21.0 89.4 72 1 0 0 437 29
04/22/17 Video View Brantley, Michael CLE Ynoa, Michael CHW 7 Guaranteed R... PL 391 107.4 22.0 73.7 60 0 -1 0 391 26
04/22/17 Video View Ramirez, Jose CLE Ynoa, Michael CHW 9 Guaranteed R... PL 407 105.2 25.5 75.1 79 0 -2 1 407 29
04/21/17 Video View Guyer, Brandon CLE Quintana, Jose CHW 4 Guaranteed R... PL 397 102.1 25.6 103.0 75 4 -2 0 394 18
04/09/17 Video View Polanco, Jorge MIN Quintana, Jose CHW 7 Guaranteed R... PL 403 101.1 26.7 96.7 87 -1 0 0 403 19
04/09/17 Video View Sano, Miguel MIN Jones, Nate CHW 8 Guaranteed R... PL 422 103.9 26.3 90.5 102 -5 2 1 424 27
04/08/17 Video View Soto, Geovany CHW Haley, Justin MIN 6 Guaranteed R... PL 397 110.2 22.6 112.0 64 -3 -1 0 399 30
04/08/17 Video View Garcia, Avisail CHW Haley, Justin MIN 6 Guaranteed R... PL 429 107.2 22.7 87.7 85 0 0 1 429 28
04/08/17 Video View Castro, Jason MIN Gonzalez, Miguel CHW 6 Guaranteed R... PL 416 102.4 25.0 91.0 88 4 0 1 411 20
04/06/17 Video View Davidson, Matt CHW Sanchez, Anibal DET 4 Guaranteed R... ND 442 107.5 27.8 104.9 102 16 -4 1 428 30
04/06/17 Video View Soto, Geovany CHW Wilson, Alex DET 7 Guaranteed R... PL 425 101.8 30.8 89.4 107 14 -4 2 413 23
04/06/17 Video View Soto, Geovany CHW Boyd, Matt DET 3 Guaranteed R... ND 384 103.0 30.4 126.4 83 8 -4 1 378 30
04/06/17 Video View Collins, Tyler DET Shields, James CHW 2 Guaranteed R... PL 404 105.5 23.4 78.5 69 0 -1 0 404 27
04/04/17 Video View Kinsler, Ian DET Quintana, Jose CHW 4 Guaranteed R... PL 372 98.2 34.2 106.5 116 0 -4 2 374 22
04/04/17 Video View Jones, JaCoby DET Quintana, Jose CHW 2 Guaranteed R... PL 366 98.8 32.3 118.4 95 0 -3 2 367 30
04/04/17 Video View Castellanos, Nick DET Quintana, Jose CHW 2 Guaranteed R... PL 405 106.8 24.1 73.4 71 1 -1 0 405 29


About HitTracker | Contact Us
© 2006-2017 HitTrackerOnline